sensor_id;sensor_type;location;lat;lon;timestamp;P1;durP1;ratioP1;P2;durP2;ratioP2
13335;SDS011;6737;51.480;11.962;2023-06-10T00:02:08;6.07;;;3.50;;
13335;SDS011;6737;51.480;11.962;2023-06-10T00:04:34;6.20;;;3.83;;
13335;SDS011;6737;51.480;11.962;2023-06-10T00:07:02;8.38;;;3.63;;
13335;SDS011;6737;51.480;11.962;2023-06-10T00:09:36;5.13;;;3.50;;
13335;SDS011;6737;51.480;11.962;2023-06-10T00:12:05;8.25;;;3.50;;
13335;SDS011;6737;51.480;11.962;2023-06-10T00:14:36;5.70;;;3.40;;
13335;SDS011;6737;51.480;11.962;2023-06-10T00:17:04;6.72;;;3.60;;
13335;SDS011;6737;51.480;11.962;2023-06-10T00:19:35;7.15;;;3.53;;
13335;SDS011;6737;51.480;11.962;2023-06-10T00:22:01;5.78;;;3.33;;
13335;SDS011;6737;51.480;11.962;2023-06-10T00:24:28;5.68;;;3.38;;
13335;SDS011;6737;51.480;11.962;2023-06-10T00:26:54;6.45;;;3.53;;
13335;SDS011;6737;51.480;11.962;2023-06-10T00:29:20;6.93;;;3.70;;
13335;SDS011;6737;51.480;11.962;2023-06-10T00:31:46;6.68;;;3.40;;
13335;SDS011;6737;51.480;11.962;2023-06-10T00:34:12;7.50;;;3.60;;
13335;SDS011;6737;51.480;11.962;2023-06-10T00:36:37;6.90;;;3.80;;
13335;SDS011;6737;51.480;11.962;2023-06-10T00:39:03;7.50;;;3.50;;
13335;SDS011;6737;51.480;11.962;2023-06-10T00:41:29;6.78;;;3.50;;
13335;SDS011;6737;51.480;11.962;2023-06-10T00:43:56;6.80;;;3.63;;
13335;SDS011;6737;51.480;11.962;2023-06-10T00:46:21;5.55;;;3.22;;
13335;SDS011;6737;51.480;11.962;2023-06-10T00:48:50;6.78;;;3.30;;
13335;SDS011;6737;51.480;11.962;2023-06-10T00:51:16;5.10;;;3.28;;
13335;SDS011;6737;51.480;11.962;2023-06-10T00:53:42;7.43;;;3.58;;
13335;SDS011;6737;51.480;11.962;2023-06-10T00:56:10;6.17;;;3.57;;
13335;SDS011;6737;51.480;11.962;2023-06-10T00:58:35;8.25;;;3.38;;
13335;SDS011;6737;51.480;11.962;2023-06-10T01:01:02;5.75;;;3.17;;
13335;SDS011;6737;51.480;11.962;2023-06-10T01:03:29;5.50;;;3.30;;
13335;SDS011;6737;51.480;11.962;2023-06-10T01:05:58;7.43;;;3.60;;
13335;SDS011;6737;51.480;11.962;2023-06-10T01:08:46;5.90;;;3.28;;
13335;SDS011;6737;51.480;11.962;2023-06-10T01:11:27;5.88;;;3.40;;
13335;SDS011;6737;51.480;11.962;2023-06-10T01:14:00;7.80;;;3.40;;
13335;SDS011;6737;51.480;11.962;2023-06-10T01:16:27;8.50;;;3.53;;
13335;SDS011;6737;51.480;11.962;2023-06-10T01:18:53;6.32;;;3.40;;
13335;SDS011;6737;51.480;11.962;2023-06-10T01:21:20;8.00;;;3.60;;
13335;SDS011;6737;51.480;11.962;2023-06-10T01:23:49;5.60;;;3.63;;
13335;SDS011;6737;51.480;11.962;2023-06-10T01:26:18;5.85;;;3.50;;
13335;SDS011;6737;51.480;11.962;2023-06-10T01:31:54;7.68;;;3.78;;
13335;SDS011;6737;51.480;11.962;2023-06-10T01:34:25;6.28;;;3.42;;
13335;SDS011;6737;51.480;11.962;2023-06-10T01:36:52;6.50;;;3.53;;
13335;SDS011;6737;51.480;11.962;2023-06-10T01:39:22;5.90;;;3.78;;
13335;SDS011;6737;51.480;11.962;2023-06-10T01:41:50;6.95;;;3.67;;
13335;SDS011;6737;51.480;11.962;2023-06-10T01:44:20;6.53;;;3.75;;
13335;SDS011;6737;51.480;11.962;2023-06-10T01:46:47;8.73;;;3.90;;
13335;SDS011;6737;51.480;11.962;2023-06-10T01:49:13;7.60;;;3.90;;
13335;SDS011;6737;51.480;11.962;2023-06-10T01:51:39;7.67;;;4.00;;
13335;SDS011;6737;51.480;11.962;2023-06-10T01:54:05;8.00;;;3.80;;
13335;SDS011;6737;51.480;11.962;2023-06-10T01:56:32;8.05;;;4.05;;
13335;SDS011;6737;51.480;11.962;2023-06-10T01:58:58;7.35;;;3.95;;
13335;SDS011;6737;51.480;11.962;2023-06-10T02:01:28;6.53;;;3.90;;
13335;SDS011;6737;51.480;11.962;2023-06-10T02:03:54;6.88;;;3.95;;
13335;SDS011;6737;51.480;11.962;2023-06-10T02:06:20;8.73;;;4.25;;
13335;SDS011;6737;51.480;11.962;2023-06-10T02:08:45;7.50;;;4.37;;
13335;SDS011;6737;51.480;11.962;2023-06-10T02:11:11;8.70;;;4.10;;
13335;SDS011;6737;51.480;11.962;2023-06-10T02:13:38;7.87;;;4.07;;
13335;SDS011;6737;51.480;11.962;2023-06-10T02:16:03;6.68;;;4.22;;
13335;SDS011;6737;51.480;11.962;2023-06-10T02:18:31;7.63;;;4.30;;
13335;SDS011;6737;51.480;11.962;2023-06-10T02:20:56;7.27;;;4.23;;
13335;SDS011;6737;51.480;11.962;2023-06-10T02:23:22;9.05;;;4.22;;
13335;SDS011;6737;51.480;11.962;2023-06-10T02:25:48;7.22;;;4.03;;
13335;SDS011;6737;51.480;11.962;2023-06-10T02:28:14;9.13;;;3.90;;
13335;SDS011;6737;51.480;11.962;2023-06-10T02:30:43;7.75;;;4.25;;
13335;SDS011;6737;51.480;11.962;2023-06-10T02:33:09;8.77;;;4.25;;
13335;SDS011;6737;51.480;11.962;2023-06-10T02:35:38;8.55;;;4.35;;
13335;SDS011;6737;51.480;11.962;2023-06-10T02:38:05;11.48;;;4.20;;
13335;SDS011;6737;51.480;11.962;2023-06-10T02:40:31;6.38;;;4.30;;
13335;SDS011;6737;51.480;11.962;2023-06-10T02:42:57;8.07;;;4.30;;
13335;SDS011;6737;51.480;11.962;2023-06-10T02:45:24;9.68;;;4.38;;
13335;SDS011;6737;51.480;11.962;2023-06-10T02:47:49;6.50;;;3.97;;
13335;SDS011;6737;51.480;11.962;2023-06-10T02:50:15;9.57;;;4.28;;
13335;SDS011;6737;51.480;11.962;2023-06-10T02:52:41;8.75;;;4.25;;
13335;SDS011;6737;51.480;11.962;2023-06-10T02:55:08;7.70;;;4.30;;
13335;SDS011;6737;51.480;11.962;2023-06-10T02:57:35;7.88;;;4.35;;
13335;SDS011;6737;51.480;11.962;2023-06-10T03:00:00;10.00;;;4.43;;
13335;SDS011;6737;51.480;11.962;2023-06-10T03:02:27;8.38;;;4.65;;
13335;SDS011;6737;51.480;11.962;2023-06-10T03:04:55;9.65;;;4.32;;
13335;SDS011;6737;51.480;11.962;2023-06-10T03:07:21;8.70;;;4.45;;
13335;SDS011;6737;51.480;11.962;2023-06-10T03:09:46;7.18;;;4.63;;
13335;SDS011;6737;51.480;11.962;2023-06-10T03:12:12;9.13;;;4.57;;
13335;SDS011;6737;51.480;11.962;2023-06-10T03:14:38;7.75;;;4.35;;
13335;SDS011;6737;51.480;11.962;2023-06-10T03:17:04;11.60;;;4.82;;
13335;SDS011;6737;51.480;11.962;2023-06-10T03:19:31;6.90;;;4.40;;
13335;SDS011;6737;51.480;11.962;2023-06-10T03:22:19;8.68;;;4.40;;
13335;SDS011;6737;51.480;11.962;2023-06-10T03:24:45;8.37;;;4.27;;
13335;SDS011;6737;51.480;11.962;2023-06-10T03:27:11;9.73;;;4.43;;
13335;SDS011;6737;51.480;11.962;2023-06-10T03:29:38;10.60;;;4.80;;
13335;SDS011;6737;51.480;11.962;2023-06-10T03:32:04;9.38;;;4.63;;
13335;SDS011;6737;51.480;11.962;2023-06-10T03:34:31;9.03;;;4.67;;
13335;SDS011;6737;51.480;11.962;2023-06-10T03:36:57;10.53;;;5.03;;
13335;SDS011;6737;51.480;11.962;2023-06-10T03:39:23;9.68;;;4.93;;
13335;SDS011;6737;51.480;11.962;2023-06-10T03:41:49;9.33;;;4.70;;
13335;SDS011;6737;51.480;11.962;2023-06-10T03:44:15;8.40;;;4.70;;
13335;SDS011;6737;51.480;11.962;2023-06-10T03:46:41;9.15;;;4.53;;
13335;SDS011;6737;51.480;11.962;2023-06-10T03:49:07;8.52;;;4.75;;
13335;SDS011;6737;51.480;11.962;2023-06-10T03:51:35;7.57;;;4.97;;
13335;SDS011;6737;51.480;11.962;2023-06-10T03:54:01;9.70;;;5.15;;
13335;SDS011;6737;51.480;11.962;2023-06-10T03:56:27;7.40;;;4.40;;
13335;SDS011;6737;51.480;11.962;2023-06-10T03:58:54;9.03;;;5.17;;
13335;SDS011;6737;51.480;11.962;2023-06-10T04:01:21;11.07;;;5.05;;
13335;SDS011;6737;51.480;11.962;2023-06-10T04:03:48;9.07;;;4.73;;
13335;SDS011;6737;51.480;11.962;2023-06-10T04:06:16;8.37;;;5.00;;
13335;SDS011;6737;51.480;11.962;2023-06-10T04:08:42;9.03;;;4.90;;
13335;SDS011;6737;51.480;11.962;2023-06-10T04:11:08;11.47;;;5.13;;
13335;SDS011;6737;51.480;11.962;2023-06-10T04:13:34;8.67;;;4.57;;
13335;SDS011;6737;51.480;11.962;2023-06-10T04:16:00;11.43;;;5.10;;
13335;SDS011;6737;51.480;11.962;2023-06-10T04:18:26;10.37;;;4.80;;
13335;SDS011;6737;51.480;11.962;2023-06-10T04:20:51;8.47;;;5.03;;
13335;SDS011;6737;51.480;11.962;2023-06-10T04:23:17;10.70;;;5.17;;
13335;SDS011;6737;51.480;11.962;2023-06-10T04:25:43;11.60;;;5.10;;
13335;SDS011;6737;51.480;11.962;2023-06-10T04:28:09;8.27;;;4.67;;
13335;SDS011;6737;51.480;11.962;2023-06-10T04:30:35;10.73;;;4.97;;
13335;SDS011;6737;51.480;11.962;2023-06-10T04:33:01;7.80;;;4.87;;
13335;SDS011;6737;51.480;11.962;2023-06-10T04:35:26;9.30;;;4.80;;
13335;SDS011;6737;51.480;11.962;2023-06-10T04:37:53;7.70;;;5.33;;
13335;SDS011;6737;51.480;11.962;2023-06-10T04:40:19;10.23;;;5.40;;
13335;SDS011;6737;51.480;11.962;2023-06-10T04:42:45;9.13;;;5.20;;
13335;SDS011;6737;51.480;11.962;2023-06-10T04:45:10;9.52;;;4.97;;
13335;SDS011;6737;51.480;11.962;2023-06-10T04:47:36;11.83;;;5.27;;
13335;SDS011;6737;51.480;11.962;2023-06-10T04:50:02;11.90;;;4.90;;
13335;SDS011;6737;51.480;11.962;2023-06-10T04:52:29;11.10;;;5.35;;
13335;SDS011;6737;51.480;11.962;2023-06-10T04:54:57;9.43;;;5.30;;
13335;SDS011;6737;51.480;11.962;2023-06-10T04:57:23;12.73;;;5.30;;
13335;SDS011;6737;51.480;11.962;2023-06-10T04:59:49;9.70;;;4.77;;
13335;SDS011;6737;51.480;11.962;2023-06-10T05:02:15;8.10;;;5.13;;
13335;SDS011;6737;51.480;11.962;2023-06-10T05:04:40;8.05;;;4.88;;
13335;SDS011;6737;51.480;11.962;2023-06-10T05:07:06;9.63;;;5.30;;
13335;SDS011;6737;51.480;11.962;2023-06-10T05:09:32;10.07;;;5.23;;
13335;SDS011;6737;51.480;11.962;2023-06-10T05:11:58;12.20;;;5.37;;
13335;SDS011;6737;51.480;11.962;2023-06-10T05:14:24;11.20;;;5.40;;
13335;SDS011;6737;51.480;11.962;2023-06-10T05:16:49;9.90;;;5.47;;
13335;SDS011;6737;51.480;11.962;2023-06-10T05:19:15;12.37;;;5.60;;
13335;SDS011;6737;51.480;11.962;2023-06-10T05:21:41;10.30;;;5.13;;
13335;SDS011;6737;51.480;11.962;2023-06-10T05:24:07;10.53;;;5.43;;
13335;SDS011;6737;51.480;11.962;2023-06-10T05:26:33;11.10;;;5.53;;
13335;SDS011;6737;51.480;11.962;2023-06-10T05:29:03;10.40;;;5.23;;
13335;SDS011;6737;51.480;11.962;2023-06-10T05:31:29;9.33;;;5.23;;
13335;SDS011;6737;51.480;11.962;2023-06-10T05:33:55;9.83;;;5.60;;
13335;SDS011;6737;51.480;11.962;2023-06-10T05:36:21;9.67;;;5.70;;
13335;SDS011;6737;51.480;11.962;2023-06-10T05:38:47;11.43;;;5.65;;
13335;SDS011;6737;51.480;11.962;2023-06-10T05:41:13;8.13;;;5.88;;
13335;SDS011;6737;51.480;11.962;2023-06-10T05:43:39;11.63;;;5.77;;
13335;SDS011;6737;51.480;11.962;2023-06-10T05:46:05;10.43;;;5.53;;
13335;SDS011;6737;51.480;11.962;2023-06-10T05:48:31;9.90;;;5.50;;
13335;SDS011;6737;51.480;11.962;2023-06-10T05:50:57;11.97;;;5.87;;
13335;SDS011;6737;51.480;11.962;2023-06-10T05:53:22;9.40;;;5.57;;
13335;SDS011;6737;51.480;11.962;2023-06-10T05:55:48;9.85;;;5.30;;
13335;SDS011;6737;51.480;11.962;2023-06-10T05:58:14;12.00;;;6.03;;
13335;SDS011;6737;51.480;11.962;2023-06-10T06:00:40;9.85;;;6.10;;
13335;SDS011;6737;51.480;11.962;2023-06-10T06:03:09;12.60;;;5.60;;
13335;SDS011;6737;51.480;11.962;2023-06-10T06:05:36;9.77;;;5.80;;
13335;SDS011;6737;51.480;11.962;2023-06-10T06:08:06;9.07;;;5.63;;
13335;SDS011;6737;51.480;11.962;2023-06-10T06:10:33;10.25;;;5.68;;
13335;SDS011;6737;51.480;11.962;2023-06-10T06:12:59;10.88;;;5.80;;
13335;SDS011;6737;51.480;11.962;2023-06-10T06:15:25;8.05;;;5.15;;
13335;SDS011;6737;51.480;11.962;2023-06-10T06:17:52;11.00;;;6.03;;
13335;SDS011;6737;51.480;11.962;2023-06-10T06:20:21;9.82;;;5.97;;
13335;SDS011;6737;51.480;11.962;2023-06-10T06:22:48;11.63;;;6.00;;
13335;SDS011;6737;51.480;11.962;2023-06-10T06:25:14;8.23;;;5.38;;
13335;SDS011;6737;51.480;11.962;2023-06-10T06:27:40;8.77;;;5.85;;
13335;SDS011;6737;51.480;11.962;2023-06-10T06:30:06;8.82;;;5.57;;
13335;SDS011;6737;51.480;11.962;2023-06-10T06:32:32;12.88;;;5.43;;
13335;SDS011;6737;51.480;11.962;2023-06-10T06:34:58;10.80;;;6.22;;
13335;SDS011;6737;51.480;11.962;2023-06-10T06:37:24;9.35;;;5.22;;
13335;SDS011;6737;51.480;11.962;2023-06-10T06:39:51;8.80;;;5.57;;
13335;SDS011;6737;51.480;11.962;2023-06-10T06:42:18;10.55;;;5.80;;
13335;SDS011;6737;51.480;11.962;2023-06-10T06:44:46;11.00;;;5.72;;
13335;SDS011;6737;51.480;11.962;2023-06-10T06:47:12;11.65;;;5.47;;
13335;SDS011;6737;51.480;11.962;2023-06-10T06:49:38;11.30;;;6.05;;
13335;SDS011;6737;51.480;11.962;2023-06-10T06:52:04;11.80;;;6.10;;
13335;SDS011;6737;51.480;11.962;2023-06-10T06:54:30;8.68;;;5.35;;
13335;SDS011;6737;51.480;11.962;2023-06-10T06:56:56;8.35;;;6.03;;
13335;SDS011;6737;51.480;11.962;2023-06-10T06:59:22;11.15;;;6.15;;
13335;SDS011;6737;51.480;11.962;2023-06-10T07:01:50;12.70;;;6.35;;
13335;SDS011;6737;51.480;11.962;2023-06-10T07:04:16;9.45;;;6.20;;
13335;SDS011;6737;51.480;11.962;2023-06-10T07:06:42;11.20;;;6.47;;
13335;SDS011;6737;51.480;11.962;2023-06-10T07:09:08;9.57;;;6.05;;
13335;SDS011;6737;51.480;11.962;2023-06-10T07:11:34;13.00;;;5.97;;
13335;SDS011;6737;51.480;11.962;2023-06-10T07:14:00;9.35;;;5.82;;
13335;SDS011;6737;51.480;11.962;2023-06-10T07:16:26;11.13;;;6.82;;
13335;SDS011;6737;51.480;11.962;2023-06-10T07:18:52;11.65;;;6.13;;
13335;SDS011;6737;51.480;11.962;2023-06-10T07:21:18;10.35;;;6.95;;
13335;SDS011;6737;51.480;11.962;2023-06-10T07:23:44;7.55;;;5.63;;
13335;SDS011;6737;51.480;11.962;2023-06-10T07:26:10;12.15;;;6.38;;
13335;SDS011;6737;51.480;11.962;2023-06-10T07:28:39;13.55;;;6.13;;
13335;SDS011;6737;51.480;11.962;2023-06-10T07:31:05;9.23;;;6.05;;
13335;SDS011;6737;51.480;11.962;2023-06-10T07:33:32;11.23;;;6.43;;
13335;SDS011;6737;51.480;11.962;2023-06-10T07:35:58;11.82;;;6.57;;
13335;SDS011;6737;51.480;11.962;2023-06-10T07:38:27;9.63;;;6.70;;
13335;SDS011;6737;51.480;11.962;2023-06-10T07:40:52;9.93;;;6.22;;
13335;SDS011;6737;51.480;11.962;2023-06-10T07:43:18;11.63;;;5.78;;
13335;SDS011;6737;51.480;11.962;2023-06-10T07:45:44;10.13;;;6.50;;
13335;SDS011;6737;51.480;11.962;2023-06-10T07:48:10;11.48;;;6.88;;
13335;SDS011;6737;51.480;11.962;2023-06-10T07:50:37;10.85;;;6.78;;
13335;SDS011;6737;51.480;11.962;2023-06-10T07:53:03;12.07;;;6.65;;
13335;SDS011;6737;51.480;11.962;2023-06-10T07:55:28;8.27;;;5.93;;
13335;SDS011;6737;51.480;11.962;2023-06-10T07:57:54;10.70;;;6.40;;
13335;SDS011;6737;51.480;11.962;2023-06-10T08:00:20;12.82;;;6.40;;
13335;SDS011;6737;51.480;11.962;2023-06-10T08:02:46;11.50;;;6.40;;
13335;SDS011;6737;51.480;11.962;2023-06-10T08:05:13;15.18;;;6.90;;
13335;SDS011;6737;51.480;11.962;2023-06-10T08:07:39;10.85;;;6.40;;
13335;SDS011;6737;51.480;11.962;2023-06-10T08:10:06;10.27;;;6.78;;
13335;SDS011;6737;51.480;11.962;2023-06-10T08:12:32;12.00;;;7.18;;
13335;SDS011;6737;51.480;11.962;2023-06-10T08:14:59;10.05;;;6.57;;
13335;SDS011;6737;51.480;11.962;2023-06-10T08:17:25;11.93;;;6.97;;
13335;SDS011;6737;51.480;11.962;2023-06-10T08:19:51;10.25;;;6.47;;
13335;SDS011;6737;51.480;11.962;2023-06-10T08:22:16;9.95;;;6.72;;
13335;SDS011;6737;51.480;11.962;2023-06-10T08:24:42;10.82;;;7.18;;
13335;SDS011;6737;51.480;11.962;2023-06-10T08:27:08;11.07;;;7.38;;
13335;SDS011;6737;51.480;11.962;2023-06-10T08:29:34;8.82;;;6.60;;
13335;SDS011;6737;51.480;11.962;2023-06-10T08:32:00;11.45;;;6.75;;
13335;SDS011;6737;51.480;11.962;2023-06-10T08:34:26;9.68;;;6.95;;
13335;SDS011;6737;51.480;11.962;2023-06-10T08:36:51;10.57;;;7.50;;
13335;SDS011;6737;51.480;11.962;2023-06-10T08:39:20;13.88;;;7.68;;
13335;SDS011;6737;51.480;11.962;2023-06-10T08:42:33;9.27;;;7.10;;
13335;SDS011;6737;51.480;11.962;2023-06-10T08:44:38;12.20;;;7.75;;
13335;SDS011;6737;51.480;11.962;2023-06-10T08:47:26;13.70;;;7.65;;
13335;SDS011;6737;51.480;11.962;2023-06-10T08:49:54;10.05;;;7.13;;
13335;SDS011;6737;51.480;11.962;2023-06-10T08:52:22;10.70;;;7.25;;
13335;SDS011;6737;51.480;11.962;2023-06-10T08:54:56;13.93;;;8.00;;
13335;SDS011;6737;51.480;11.962;2023-06-10T08:57:25;11.23;;;7.88;;
13335;SDS011;6737;51.480;11.962;2023-06-10T08:59:52;8.90;;;7.20;;
13335;SDS011;6737;51.480;11.962;2023-06-10T09:02:21;11.18;;;6.95;;
13335;SDS011;6737;51.480;11.962;2023-06-10T09:04:48;10.18;;;6.80;;
13335;SDS011;6737;51.480;11.962;2023-06-10T09:07:15;11.57;;;7.00;;
13335;SDS011;6737;51.480;11.962;2023-06-10T09:09:42;10.80;;;6.97;;
13335;SDS011;6737;51.480;11.962;2023-06-10T09:12:10;10.68;;;7.50;;
13335;SDS011;6737;51.480;11.962;2023-06-10T09:14:39;9.50;;;6.82;;
13335;SDS011;6737;51.480;11.962;2023-06-10T09:17:05;10.67;;;6.77;;
13335;SDS011;6737;51.480;11.962;2023-06-10T09:19:31;9.82;;;6.75;;
13335;SDS011;6737;51.480;11.962;2023-06-10T09:21:58;42.55;;;9.50;;
13335;SDS011;6737;51.480;11.962;2023-06-10T09:24:24;8.82;;;7.05;;
13335;SDS011;6737;51.480;11.962;2023-06-10T09:27:01;9.82;;;6.93;;
13335;SDS011;6737;51.480;11.962;2023-06-10T09:29:45;10.60;;;6.78;;
13335;SDS011;6737;51.480;11.962;2023-06-10T09:32:18;11.10;;;6.78;;
13335;SDS011;6737;51.480;11.962;2023-06-10T09:34:45;10.30;;;6.53;;
13335;SDS011;6737;51.480;11.962;2023-06-10T09:37:12;14.65;;;6.55;;
13335;SDS011;6737;51.480;11.962;2023-06-10T09:39:39;8.73;;;6.47;;
13335;SDS011;6737;51.480;11.962;2023-06-10T09:42:18;9.65;;;7.00;;
13335;SDS011;6737;51.480;11.962;2023-06-10T09:44:50;9.70;;;6.68;;
13335;SDS011;6737;51.480;11.962;2023-06-10T09:47:20;11.32;;;6.75;;
13335;SDS011;6737;51.480;11.962;2023-06-10T09:49:48;9.90;;;6.00;;
13335;SDS011;6737;51.480;11.962;2023-06-10T09:52:26;7.68;;;6.80;;
13335;SDS011;6737;51.480;11.962;2023-06-10T09:54:58;10.82;;;6.85;;
13335;SDS011;6737;51.480;11.962;2023-06-10T09:57:25;8.60;;;6.40;;
13335;SDS011;6737;51.480;11.962;2023-06-10T09:59:52;12.10;;;6.30;;
13335;SDS011;6737;51.480;11.962;2023-06-10T10:02:19;8.13;;;6.45;;
13335;SDS011;6737;51.480;11.962;2023-06-10T10:04:45;8.85;;;6.38;;
13335;SDS011;6737;51.480;11.962;2023-06-10T10:07:11;10.07;;;6.20;;
13335;SDS011;6737;51.480;11.962;2023-06-10T10:09:38;9.07;;;6.47;;
13335;SDS011;6737;51.480;11.962;2023-06-10T10:12:11;9.52;;;5.97;;
13335;SDS011;6737;51.480;11.962;2023-06-10T10:14:41;7.18;;;5.90;;
13335;SDS011;6737;51.480;11.962;2023-06-10T10:17:11;7.90;;;6.03;;
13335;SDS011;6737;51.480;11.962;2023-06-10T10:19:46;7.93;;;6.60;;
13335;SDS011;6737;51.480;11.962;2023-06-10T10:22:20;8.23;;;5.63;;
13335;SDS011;6737;51.480;11.962;2023-06-10T10:25:37;6.35;;;5.63;;
13335;SDS011;6737;51.480;11.962;2023-06-10T10:27:52;7.20;;;6.07;;
13335;SDS011;6737;51.480;11.962;2023-06-10T10:30:22;9.23;;;6.15;;
13335;SDS011;6737;51.480;11.962;2023-06-10T10:35:23;7.70;;;6.18;;
13335;SDS011;6737;51.480;11.962;2023-06-10T10:37:53;7.18;;;5.93;;
13335;SDS011;6737;51.480;11.962;2023-06-10T10:40:22;15.45;;;6.57;;
13335;SDS011;6737;51.480;11.962;2023-06-10T10:42:50;9.52;;;5.75;;
13335;SDS011;6737;51.480;11.962;2023-06-10T10:45:17;6.70;;;6.00;;
13335;SDS011;6737;51.480;11.962;2023-06-10T10:47:44;10.07;;;6.10;;
13335;SDS011;6737;51.480;11.962;2023-06-10T10:50:17;8.30;;;6.15;;
13335;SDS011;6737;51.480;11.962;2023-06-10T10:53:19;9.00;;;6.13;;
13335;SDS011;6737;51.480;11.962;2023-06-10T10:55:45;8.48;;;6.30;;
13335;SDS011;6737;51.480;11.962;2023-06-10T10:58:24;7.03;;;5.90;;
13335;SDS011;6737;51.480;11.962;2023-06-10T11:00:50;8.55;;;5.78;;
13335;SDS011;6737;51.480;11.962;2023-06-10T11:03:16;9.45;;;6.18;;
13335;SDS011;6737;51.480;11.962;2023-06-10T11:05:44;7.68;;;6.13;;
13335;SDS011;6737;51.480;11.962;2023-06-10T11:08:13;10.82;;;6.35;;
13335;SDS011;6737;51.480;11.962;2023-06-10T11:10:41;7.53;;;5.90;;
13335;SDS011;6737;51.480;11.962;2023-06-10T11:13:21;7.95;;;5.82;;
13335;SDS011;6737;51.480;11.962;2023-06-10T11:15:48;8.82;;;5.80;;
13335;SDS011;6737;51.480;11.962;2023-06-10T11:31:20;7.75;;;6.43;;
13335;SDS011;6737;51.480;11.962;2023-06-10T11:33:54;6.43;;;5.82;;
13335;SDS011;6737;51.480;11.962;2023-06-10T11:36:24;6.25;;;5.65;;
13335;SDS011;6737;51.480;11.962;2023-06-10T11:38:53;10.65;;;6.47;;
13335;SDS011;6737;51.480;11.962;2023-06-10T11:41:24;9.00;;;6.38;;
13335;SDS011;6737;51.480;11.962;2023-06-10T11:43:54;7.90;;;6.10;;
13335;SDS011;6737;51.480;11.962;2023-06-10T11:46:23;8.48;;;6.18;;
13335;SDS011;6737;51.480;11.962;2023-06-10T11:48:55;8.82;;;5.75;;
13335;SDS011;6737;51.480;11.962;2023-06-10T11:51:25;8.40;;;6.25;;
13335;SDS011;6737;51.480;11.962;2023-06-10T11:53:52;7.65;;;6.22;;
13335;SDS011;6737;51.480;11.962;2023-06-10T11:56:28;8.27;;;6.38;;
13335;SDS011;6737;51.480;11.962;2023-06-10T11:58:59;8.98;;;6.75;;
13335;SDS011;6737;51.480;11.962;2023-06-10T12:01:30;10.18;;;6.00;;
13335;SDS011;6737;51.480;11.962;2023-06-10T12:03:57;9.15;;;6.15;;
13335;SDS011;6737;51.480;11.962;2023-06-10T12:12:05;6.90;;;6.20;;
13335;SDS011;6737;51.480;11.962;2023-06-10T12:19:58;8.48;;;6.00;;
13335;SDS011;6737;51.480;11.962;2023-06-10T12:22:25;7.22;;;6.15;;
13335;SDS011;6737;51.480;11.962;2023-06-10T12:24:58;8.23;;;6.28;;
13335;SDS011;6737;51.480;11.962;2023-06-10T12:27:26;7.68;;;6.28;;
13335;SDS011;6737;51.480;11.962;2023-06-10T12:29:55;8.10;;;6.10;;
13335;SDS011;6737;51.480;11.962;2023-06-10T12:32:38;8.93;;;5.90;;
13335;SDS011;6737;51.480;11.962;2023-06-10T12:35:17;7.68;;;6.00;;
13335;SDS011;6737;51.480;11.962;2023-06-10T12:37:55;8.30;;;6.00;;
13335;SDS011;6737;51.480;11.962;2023-06-10T12:40:25;8.80;;;6.10;;
13335;SDS011;6737;51.480;11.962;2023-06-10T12:42:58;9.98;;;6.25;;
13335;SDS011;6737;51.480;11.962;2023-06-10T12:48:04;7.15;;;6.35;;
13335;SDS011;6737;51.480;11.962;2023-06-10T12:50:31;6.57;;;5.97;;
13335;SDS011;6737;51.480;11.962;2023-06-10T12:52:58;7.53;;;6.72;;
13335;SDS011;6737;51.480;11.962;2023-06-10T12:55:26;6.70;;;6.10;;
13335;SDS011;6737;51.480;11.962;2023-06-10T12:57:53;7.40;;;5.95;;
13335;SDS011;6737;51.480;11.962;2023-06-10T13:00:20;7.15;;;5.93;;
13335;SDS011;6737;51.480;11.962;2023-06-10T13:02:47;7.43;;;6.07;;
13335;SDS011;6737;51.480;11.962;2023-06-10T13:05:14;7.13;;;5.93;;
13335;SDS011;6737;51.480;11.962;2023-06-10T13:07:40;8.55;;;5.80;;
13335;SDS011;6737;51.480;11.962;2023-06-10T13:10:07;8.05;;;5.80;;
13335;SDS011;6737;51.480;11.962;2023-06-10T13:12:33;9.07;;;6.10;;
13335;SDS011;6737;51.480;11.962;2023-06-10T13:14:58;8.02;;;5.80;;
13335;SDS011;6737;51.480;11.962;2023-06-10T13:17:25;9.75;;;6.25;;
13335;SDS011;6737;51.480;11.962;2023-06-10T13:19:51;6.60;;;5.95;;
13335;SDS011;6737;51.480;11.962;2023-06-10T13:22:16;9.05;;;6.10;;
13335;SDS011;6737;51.480;11.962;2023-06-10T13:24:44;5.60;;;5.00;;
13335;SDS011;6737;51.480;11.962;2023-06-10T13:27:10;9.80;;;5.50;;
13335;SDS011;6737;51.480;11.962;2023-06-10T13:29:36;7.88;;;5.80;;
13335;SDS011;6737;51.480;11.962;2023-06-10T13:32:01;6.88;;;5.78;;
13335;SDS011;6737;51.480;11.962;2023-06-10T13:34:27;6.35;;;4.80;;
13335;SDS011;6737;51.480;11.962;2023-06-10T13:36:54;6.72;;;5.00;;
13335;SDS011;6737;51.480;11.962;2023-06-10T13:39:19;5.10;;;4.20;;
13335;SDS011;6737;51.480;11.962;2023-06-10T13:41:45;6.43;;;5.00;;
13335;SDS011;6737;51.480;11.962;2023-06-10T13:44:11;6.68;;;4.53;;
13335;SDS011;6737;51.480;11.962;2023-06-10T13:46:37;7.05;;;4.45;;
13335;SDS011;6737;51.480;11.962;2023-06-10T13:49:03;5.47;;;4.63;;
13335;SDS011;6737;51.480;11.962;2023-06-10T13:51:29;5.90;;;4.57;;
13335;SDS011;6737;51.480;11.962;2023-06-10T13:53:54;5.93;;;4.70;;
13335;SDS011;6737;51.480;11.962;2023-06-10T13:56:20;6.68;;;4.93;;
13335;SDS011;6737;51.480;11.962;2023-06-10T13:58:46;7.10;;;4.90;;
13335;SDS011;6737;51.480;11.962;2023-06-10T14:01:12;6.55;;;5.13;;
13335;SDS011;6737;51.480;11.962;2023-06-10T14:03:38;8.18;;;4.97;;
13335;SDS011;6737;51.480;11.962;2023-06-10T14:06:03;6.57;;;5.00;;
13335;SDS011;6737;51.480;11.962;2023-06-10T14:08:29;11.35;;;5.75;;
13335;SDS011;6737;51.480;11.962;2023-06-10T14:10:55;9.47;;;6.10;;
13335;SDS011;6737;51.480;11.962;2023-06-10T14:13:21;8.70;;;5.50;;
13335;SDS011;6737;51.480;11.962;2023-06-10T14:15:46;7.50;;;5.30;;
13335;SDS011;6737;51.480;11.962;2023-06-10T14:18:12;7.93;;;5.07;;
13335;SDS011;6737;51.480;11.962;2023-06-10T14:20:39;8.15;;;5.22;;
13335;SDS011;6737;51.480;11.962;2023-06-10T14:23:05;6.00;;;5.10;;
13335;SDS011;6737;51.480;11.962;2023-06-10T14:25:30;6.18;;;4.70;;
13335;SDS011;6737;51.480;11.962;2023-06-10T14:27:56;10.13;;;4.90;;
13335;SDS011;6737;51.480;11.962;2023-06-10T14:30:23;7.63;;;4.95;;
13335;SDS011;6737;51.480;11.962;2023-06-10T14:32:49;7.53;;;5.20;;
13335;SDS011;6737;51.480;11.962;2023-06-10T14:35:14;6.57;;;5.22;;
13335;SDS011;6737;51.480;11.962;2023-06-10T14:37:40;8.27;;;5.13;;
13335;SDS011;6737;51.480;11.962;2023-06-10T14:40:07;5.78;;;5.15;;
13335;SDS011;6737;51.480;11.962;2023-06-10T14:42:33;6.70;;;4.80;;
13335;SDS011;6737;51.480;11.962;2023-06-10T14:44:59;6.72;;;4.85;;
13335;SDS011;6737;51.480;11.962;2023-06-10T14:47:25;5.95;;;4.63;;
13335;SDS011;6737;51.480;11.962;2023-06-10T14:49:51;5.82;;;4.45;;
13335;SDS011;6737;51.480;11.962;2023-06-10T14:52:16;7.60;;;5.15;;
13335;SDS011;6737;51.480;11.962;2023-06-10T14:54:42;5.88;;;4.90;;
13335;SDS011;6737;51.480;11.962;2023-06-10T14:57:08;6.15;;;4.72;;
13335;SDS011;6737;51.480;11.962;2023-06-10T14:59:34;5.47;;;4.90;;
13335;SDS011;6737;51.480;11.962;2023-06-10T15:02:00;6.95;;;5.32;;
13335;SDS011;6737;51.480;11.962;2023-06-10T15:04:26;7.65;;;5.35;;
13335;SDS011;6737;51.480;11.962;2023-06-10T15:06:53;5.70;;;4.95;;
13335;SDS011;6737;51.480;11.962;2023-06-10T15:09:19;6.15;;;5.32;;
13335;SDS011;6737;51.480;11.962;2023-06-10T15:11:45;7.38;;;5.65;;
13335;SDS011;6737;51.480;11.962;2023-06-10T15:14:10;6.47;;;5.38;;
13335;SDS011;6737;51.480;11.962;2023-06-10T15:16:36;7.32;;;5.45;;
13335;SDS011;6737;51.480;11.962;2023-06-10T15:19:02;7.70;;;5.53;;